createdAt,value
2018-11-26T00:00:03.398Z,42.65
2018-11-26T00:05:12.573Z,51.96
2018-11-26T00:10:21.886Z,43.14
2018-11-26T00:15:30.972Z,43.08
2018-11-26T00:20:40.468Z,42.46
2018-11-26T00:25:49.727Z,48.28
2018-11-26T00:30:59.066Z,41.64
2018-11-26T00:36:08.153Z,40.10
2018-11-26T00:41:17.503Z,46.56
2018-11-26T00:46:26.658Z,39.87
2018-11-26T00:51:35.845Z,37.85
2018-11-26T00:56:45.022Z,42.41
2018-11-26T01:01:54.313Z,37.35
2018-11-26T01:07:03.556Z,36.37
2018-11-26T01:12:12.851Z,35.60
2018-11-26T01:17:21.921Z,35.70
2018-11-26T01:22:31.171Z,36.75
2018-11-26T01:27:40.315Z,36.56
2018-11-26T01:32:49.579Z,36.67
2018-11-26T01:37:58.679Z,36.35
2018-11-26T01:43:08.110Z,42.51
2018-11-26T01:48:17.256Z,35.06
2018-11-26T01:53:26.621Z,35.25
2018-11-26T01:58:35.681Z,43.24
2018-11-26T02:03:44.935Z,36.02
2018-11-26T02:08:54.021Z,34.56
2018-11-26T02:14:03.333Z,33.82
2018-11-26T02:19:12.453Z,40.01
2018-11-26T02:24:21.766Z,34.01
2018-11-26T02:29:30.883Z,34.31
2018-11-26T02:34:40.198Z,34.35
2018-11-26T02:39:49.382Z,38.77
2018-11-26T02:44:57.287Z,33.98
2018-11-26T02:50:06.384Z,34.16
2018-11-26T02:55:14.136Z,34.20
2018-11-26T03:00:23.371Z,39.03
2018-11-26T03:05:32.652Z,39.18
2018-11-26T03:10:41.871Z,32.71
2018-11-26T03:15:50.980Z,38.10
2018-11-26T03:21:00.257Z,33.30
2018-11-26T03:26:09.372Z,39.59
2018-11-26T03:31:18.612Z,33.28
2018-11-26T03:36:27.687Z,34.33
2018-11-26T03:41:36.800Z,32.50
2018-11-26T03:46:46.055Z,32.76
2018-11-26T03:51:55.307Z,32.06
2018-11-26T03:57:04.400Z,33.26
2018-11-26T04:02:13.689Z,38.76
2018-11-26T04:07:22.773Z,33.41
2018-11-26T04:12:32.001Z,33.67
2018-11-26T04:17:41.172Z,39.34
2018-11-26T04:22:50.450Z,38.87
2018-11-26T04:27:59.568Z,37.15
2018-11-26T04:33:08.801Z,32.38
2018-11-26T04:38:17.884Z,32.17
2018-11-26T04:43:27.186Z,32.36
2018-11-26T04:48:36.388Z,33.16
2018-11-26T04:53:45.747Z,32.81
2018-11-26T04:58:54.851Z,39.30
2018-11-26T05:04:03.988Z,32.71
2018-11-26T05:09:13.085Z,33.27
2018-11-26T05:14:22.390Z,39.36
2018-11-26T05:19:31.486Z,33.36
2018-11-26T05:24:40.785Z,40.39
2018-11-26T05:29:49.911Z,40.17
2018-11-26T05:34:59.132Z,33.87
2018-11-26T05:40:08.229Z,39.01
2018-11-26T05:45:17.596Z,39.13
2018-11-26T05:50:26.687Z,35.00
2018-11-26T05:55:35.992Z,39.64
2018-11-26T06:00:45.197Z,34.79
2018-11-26T06:05:54.501Z,34.79
2018-11-26T06:11:03.855Z,33.41
2018-11-26T06:16:12.984Z,33.23
2018-11-26T06:21:22.133Z,33.63
2018-11-26T06:26:31.472Z,33.03
2018-11-26T06:31:40.593Z,32.59
2018-11-26T06:36:49.948Z,34.02
2018-11-26T06:41:59.048Z,33.59
2018-11-26T06:47:08.192Z,41.21
2018-11-26T06:52:17.312Z,39.94
2018-11-26T06:57:26.736Z,33.80
2018-11-26T07:02:35.868Z,33.24
2018-11-26T07:07:45.196Z,40.04
2018-11-26T07:12:54.288Z,34.54
2018-11-26T07:18:03.605Z,34.48
2018-11-26T07:23:12.733Z,39.79
2018-11-26T07:28:21.980Z,36.00
2018-11-26T07:33:31.093Z,35.08
2018-11-26T07:38:40.440Z,40.12
2018-11-26T07:43:49.554Z,39.98
2018-11-26T07:48:58.881Z,38.88
2018-11-26T07:54:07.979Z,34.22
2018-11-26T07:59:17.200Z,33.64
2018-11-26T08:04:26.285Z,32.31
2018-11-26T08:09:35.559Z,34.13
2018-11-26T08:14:44.718Z,40.58
2018-11-26T08:19:53.999Z,34.94
2018-11-26T08:25:03.177Z,39.36
2018-11-26T08:30:12.466Z,33.98
2018-11-26T08:35:21.560Z,33.85
2018-11-26T08:40:30.898Z,39.75
2018-11-26T08:45:40.020Z,35.41
2018-11-26T08:50:49.305Z,34.07
2018-11-26T08:55:58.480Z,40.02
2018-11-26T09:01:07.796Z,35.64
2018-11-26T09:06:17.056Z,41.95
2018-11-26T09:11:26.355Z,40.32
2018-11-26T09:16:35.470Z,34.97
2018-11-26T09:21:44.801Z,36.40
2018-11-26T09:26:53.928Z,56.26
2018-11-26T09:32:03.151Z,59.32
2018-11-26T09:37:12.232Z,36.23
2018-11-26T09:42:21.461Z,35.54
2018-11-26T09:47:30.581Z,34.18
2018-11-26T09:52:39.972Z,34.21
2018-11-26T09:57:49.075Z,43.62
2018-11-26T10:02:58.360Z,47.07
2018-11-26T10:08:07.528Z,35.21
2018-11-26T10:13:16.814Z,35.37
2018-11-26T10:18:25.928Z,34.56
2018-11-26T10:23:35.180Z,34.60
2018-11-26T10:28:44.267Z,33.48
2018-11-26T10:33:53.556Z,34.06
2018-11-26T10:39:02.701Z,32.40
2018-11-26T10:44:12.066Z,33.22
2018-11-26T10:49:21.187Z,34.34
2018-11-26T10:54:30.500Z,33.04
2018-11-26T10:59:39.609Z,32.63
2018-11-26T11:04:48.902Z,32.74
2018-11-26T11:09:58.029Z,32.87
2018-11-26T11:15:07.408Z,37.56
2018-11-26T11:20:16.535Z,33.06
2018-11-26T11:25:26.240Z,37.35
2018-11-26T11:30:34.499Z,31.61
2018-11-26T11:35:43.753Z,31.53
2018-11-26T11:40:52.915Z,31.18
2018-11-26T11:46:02.261Z,30.03
2018-11-26T11:51:11.433Z,33.52
2018-11-26T11:56:20.593Z,34.26
2018-11-26T12:01:29.718Z,29.88
2018-11-26T12:06:39.126Z,36.28
2018-11-26T12:11:48.230Z,31.49
2018-11-26T12:16:57.469Z,31.43
2018-11-26T12:22:06.600Z,36.19
2018-11-26T12:27:15.835Z,30.20
2018-11-26T12:32:24.955Z,35.13
2018-11-26T12:37:34.238Z,29.76
2018-11-26T12:42:43.369Z,30.24
2018-11-26T12:47:52.633Z,30.45
2018-11-26T12:53:01.862Z,35.20
2018-11-26T12:58:11.119Z,30.78
2018-11-26T13:03:20.216Z,30.21
2018-11-26T13:08:29.547Z,30.49
2018-11-26T13:13:38.671Z,34.36
2018-11-26T13:18:47.961Z,29.22
2018-11-26T13:23:57.073Z,29.35
2018-11-26T13:29:06.475Z,29.45
2018-11-26T13:34:15.605Z,29.82
2018-11-26T13:39:24.756Z,34.83
2018-11-26T13:44:33.907Z,34.09
2018-11-26T13:49:43.267Z,34.68
2018-11-26T13:54:52.398Z,31.17
2018-11-26T14:00:01.751Z,35.06
2018-11-26T14:05:10.890Z,34.76
2018-11-26T14:10:20.154Z,34.53
2018-11-26T14:15:29.334Z,31.24
2018-11-26T14:20:38.672Z,29.71
2018-11-26T14:25:47.829Z,30.65
2018-11-26T14:30:57.023Z,30.58
2018-11-26T14:36:06.111Z,30.08
2018-11-26T14:41:15.459Z,31.16
2018-11-26T14:46:24.568Z,31.48
2018-11-26T14:51:33.905Z,30.63
2018-11-26T14:56:43.085Z,36.25
2018-11-26T15:01:52.318Z,35.68
2018-11-26T15:07:01.425Z,32.32
2018-11-26T15:12:10.694Z,31.59
2018-11-26T15:17:19.833Z,33.51
2018-11-26T15:22:29.024Z,34.52
2018-11-26T15:27:38.206Z,34.30
2018-11-26T15:32:47.425Z,33.95
2018-11-26T15:37:56.519Z,34.41
2018-11-26T15:43:05.922Z,35.35
2018-11-26T15:48:15.197Z,32.65
2018-11-26T15:53:24.421Z,36.71
2018-11-26T15:58:33.572Z,35.27
2018-11-26T16:03:42.781Z,35.61
2018-11-26T16:08:51.929Z,31.56
2018-11-26T16:14:01.248Z,28.91
2018-11-26T16:19:10.425Z,28.56
2018-11-26T16:24:19.617Z,27.82
2018-11-26T16:29:28.760Z,27.50
2018-11-26T16:34:38.629Z,29.73
2018-11-26T16:39:47.816Z,28.62
2018-11-26T16:44:57.277Z,28.56
2018-11-26T16:50:06.427Z,28.76
2018-11-26T16:55:16.326Z,26.76
2018-11-26T17:00:25.449Z,26.18
2018-11-26T17:05:34.729Z,26.17
2018-11-26T17:10:43.880Z,28.31
2018-11-26T17:15:53.107Z,26.62
2018-11-26T17:21:02.212Z,27.09
2018-11-26T17:26:11.553Z,26.86
2018-11-26T17:31:21.588Z,33.49
2018-11-26T17:36:20.830Z,27.71
2018-11-26T17:41:30.397Z,32.91
2018-11-26T17:46:39.718Z,31.77
2018-11-26T17:51:48.850Z,32.78
2018-11-26T17:56:58.352Z,29.49
2018-11-26T18:02:07.929Z,33.51
2018-11-26T18:07:17.167Z,29.33
2018-11-26T18:12:26.416Z,33.59
2018-11-26T18:17:35.752Z,32.49
2018-11-26T18:22:44.833Z,28.99
2018-11-26T18:27:54.089Z,27.37
2018-11-26T18:33:03.194Z,33.74
2018-11-26T18:38:12.702Z,28.92
2018-11-26T18:43:21.827Z,34.63
2018-11-26T18:48:31.373Z,29.43
2018-11-26T18:53:40.493Z,35.04
2018-11-26T18:58:50.267Z,33.14
2018-11-26T19:03:59.436Z,29.13
2018-11-26T19:09:08.809Z,27.81
2018-11-26T19:14:17.920Z,27.69
2018-11-26T19:19:27.575Z,32.84
2018-11-26T19:24:36.794Z,33.48
2018-11-26T19:29:47.308Z,28.24
2018-11-26T19:34:46.408Z,28.69
2018-11-26T19:39:55.957Z,28.10
2018-11-26T19:45:05.438Z,28.62
2018-11-26T19:50:14.930Z,29.51
2018-11-26T19:55:24.099Z,35.50
2018-11-26T20:00:33.194Z,30.03
2018-11-26T20:05:42.440Z,30.78
2018-11-26T20:10:51.603Z,29.52
2018-11-26T20:16:01.408Z,30.16
2018-11-26T20:21:10.483Z,30.53
2018-11-26T20:26:19.755Z,28.23
2018-11-26T20:31:29.167Z,32.48
2018-11-26T20:36:38.525Z,29.38
2018-11-26T20:41:47.787Z,29.33
2018-11-26T20:46:57.279Z,29.17
2018-11-26T20:52:06.566Z,28.98
2018-11-26T20:57:16.029Z,29.75
2018-11-26T21:02:25.304Z,52.39
2018-11-26T21:07:34.585Z,34.98
2018-11-26T21:12:43.857Z,30.51
2018-11-26T21:17:52.944Z,29.09
2018-11-26T21:23:02.179Z,37.74
2018-11-26T21:28:11.271Z,28.97
2018-11-26T21:33:20.661Z,28.41
2018-11-26T21:38:29.759Z,27.21
2018-11-26T21:43:39.000Z,32.57
2018-11-26T21:48:48.128Z,27.05
2018-11-26T21:53:57.549Z,26.25
2018-11-26T21:59:06.676Z,26.28
2018-11-26T22:04:15.965Z,25.93
2018-11-26T22:09:25.091Z,24.50
2018-11-26T22:14:34.382Z,24.79
2018-11-26T22:19:43.467Z,23.59
2018-11-26T22:24:52.586Z,23.44
2018-11-26T22:30:01.687Z,24.62
2018-11-26T22:35:10.946Z,24.88
2018-11-26T22:40:20.359Z,24.21
2018-11-26T22:45:29.629Z,22.09
2018-11-26T22:50:38.720Z,23.20
2018-11-26T22:55:47.945Z,23.02
2018-11-26T23:00:57.109Z,23.31
2018-11-26T23:06:06.404Z,22.13
2018-11-26T23:11:15.497Z,22.91
2018-11-26T23:16:24.837Z,22.20
2018-11-26T23:21:33.951Z,26.64
2018-11-26T23:26:43.397Z,23.61
2018-11-26T23:31:52.478Z,26.50
2018-11-26T23:37:01.795Z,24.23
2018-11-26T23:42:11.455Z,26.92
2018-11-26T23:47:21.228Z,26.74
2018-11-26T23:52:30.326Z,26.87
2018-11-26T23:57:39.859Z,23.56
